createdAt,value
2017-10-13T00:01:15.704Z,10.93
2017-10-13T00:03:43.582Z,8.67
2017-10-13T00:06:11.387Z,10.40
2017-10-13T00:08:39.174Z,10.73
2017-10-13T00:11:07.004Z,10.37
2017-10-13T00:13:34.819Z,10.77
2017-10-13T00:16:02.629Z,10.60
2017-10-13T00:18:30.356Z,10.27
2017-10-13T00:20:58.144Z,10.03
2017-10-13T00:23:25.930Z,10.10
2017-10-13T00:25:53.795Z,9.40
2017-10-13T00:28:21.537Z,11.13
2017-10-13T00:30:49.332Z,9.90
2017-10-13T00:33:17.051Z,9.43
2017-10-13T00:35:44.777Z,9.57
2017-10-13T00:38:12.526Z,9.70
2017-10-13T00:40:40.271Z,9.53
2017-10-13T00:43:08.095Z,9.07
2017-10-13T00:45:35.923Z,9.57
2017-10-13T00:48:03.729Z,9.03
2017-10-13T00:50:31.517Z,9.80
2017-10-13T00:52:59.337Z,9.80
2017-10-13T00:55:27.108Z,10.10
2017-10-13T00:57:54.953Z,9.73
2017-10-13T01:00:22.782Z,10.10
2017-10-13T01:02:50.679Z,9.03
2017-10-13T01:05:18.433Z,9.67
2017-10-13T01:07:46.230Z,9.60
2017-10-13T01:10:14.089Z,9.30
2017-10-13T01:12:41.876Z,9.37
2017-10-13T01:15:09.626Z,9.20
2017-10-13T01:17:37.462Z,8.50
2017-10-13T01:20:05.266Z,8.37
2017-10-13T01:22:33.138Z,9.37
2017-10-13T01:25:01.000Z,8.47
2017-10-13T01:27:28.817Z,9.37
2017-10-13T01:29:56.652Z,10.23
2017-10-13T01:32:24.453Z,8.50
2017-10-13T01:34:52.288Z,8.67
2017-10-13T01:37:20.093Z,9.83
2017-10-13T01:39:47.932Z,9.40
2017-10-13T01:42:15.817Z,8.43
2017-10-13T01:44:43.618Z,8.67
2017-10-13T01:47:11.345Z,8.30
2017-10-13T01:49:39.185Z,8.00
2017-10-13T01:52:06.926Z,9.03
2017-10-13T01:54:34.839Z,8.20
2017-10-13T01:57:02.644Z,9.33
2017-10-13T01:59:30.462Z,8.73
2017-10-13T02:01:58.271Z,8.77
2017-10-13T02:04:26.105Z,9.27
2017-10-13T02:06:53.923Z,8.57
2017-10-13T02:09:21.748Z,9.23
2017-10-13T02:11:49.491Z,8.50
2017-10-13T02:14:17.576Z,8.73
2017-10-13T02:16:45.413Z,8.20
2017-10-13T02:19:13.216Z,8.30
2017-10-13T02:21:40.954Z,9.30
2017-10-13T02:24:08.738Z,8.67
2017-10-13T02:26:36.521Z,9.03
2017-10-13T02:29:04.297Z,8.57
2017-10-13T02:31:32.154Z,10.50
2017-10-13T02:33:59.915Z,10.63
2017-10-13T02:36:27.680Z,10.67
2017-10-13T02:38:55.419Z,11.97
2017-10-13T02:41:23.220Z,12.07
2017-10-13T02:43:51.010Z,11.30
2017-10-13T02:46:19.513Z,11.40
2017-10-13T02:48:47.265Z,12.07
2017-10-13T02:51:15.064Z,11.70
2017-10-13T02:53:42.905Z,11.33
2017-10-13T02:56:10.714Z,12.43
2017-10-13T02:58:38.452Z,12.70
2017-10-13T03:01:06.246Z,10.93
2017-10-13T03:03:34.048Z,12.17
2017-10-13T03:06:01.781Z,12.50
2017-10-13T03:08:29.491Z,12.17
2017-10-13T03:10:57.250Z,12.67
2017-10-13T03:13:24.974Z,12.67
2017-10-13T03:15:52.766Z,12.50
2017-10-13T03:18:20.624Z,11.70
2017-10-13T03:20:48.343Z,11.47
2017-10-13T03:23:16.167Z,13.43
2017-10-13T03:25:43.907Z,12.30
2017-10-13T03:28:11.642Z,13.50
2017-10-13T03:30:39.388Z,12.17
2017-10-13T03:33:07.135Z,13.03
2017-10-13T03:35:34.933Z,12.17
2017-10-13T03:38:02.740Z,11.23
2017-10-13T03:40:30.537Z,13.60
2017-10-13T03:42:58.398Z,11.57
2017-10-13T03:45:26.194Z,12.90
2017-10-13T03:47:53.957Z,11.93
2017-10-13T03:50:21.726Z,11.73
2017-10-13T03:52:49.629Z,11.80
2017-10-13T03:55:17.425Z,12.70
2017-10-13T03:57:45.230Z,11.10
2017-10-13T04:00:13.939Z,11.83
2017-10-13T04:02:42.488Z,11.10
2017-10-13T04:05:10.293Z,12.30
2017-10-13T04:07:38.070Z,12.27
2017-10-13T04:10:05.784Z,11.90
2017-10-13T04:12:33.652Z,11.53
2017-10-13T04:15:01.385Z,11.00
2017-10-13T04:17:29.168Z,10.97
2017-10-13T04:19:56.998Z,11.30
2017-10-13T04:22:24.737Z,11.33
2017-10-13T04:24:52.928Z,10.50
2017-10-13T04:27:20.820Z,9.57
2017-10-13T04:29:48.555Z,10.73
2017-10-13T04:32:16.297Z,11.10
2017-10-13T04:34:44.173Z,10.40
2017-10-13T04:37:11.911Z,10.90
2017-10-13T04:39:39.721Z,9.77
2017-10-13T04:42:08.383Z,10.40
2017-10-13T04:44:36.192Z,10.33
2017-10-13T04:47:04.746Z,9.30
2017-10-13T04:49:32.525Z,9.70
2017-10-13T04:52:00.278Z,10.23
2017-10-13T04:54:28.094Z,10.33
2017-10-13T04:56:55.944Z,10.40
2017-10-13T04:59:24.487Z,11.33
2017-10-13T05:01:55.062Z,9.97
2017-10-13T05:04:22.892Z,10.10
2017-10-13T05:06:50.634Z,11.23
2017-10-13T05:09:18.423Z,10.50
2017-10-13T05:11:46.144Z,10.30
2017-10-13T05:14:13.875Z,11.77
2017-10-13T05:16:41.670Z,10.00
2017-10-13T05:19:09.454Z,10.40
2017-10-13T05:21:37.197Z,10.43
2017-10-13T05:24:05.105Z,9.87
2017-10-13T05:26:32.880Z,10.30
2017-10-13T05:29:00.627Z,10.57
2017-10-13T05:31:28.368Z,9.60
2017-10-13T05:33:56.959Z,10.30
2017-10-13T05:36:24.826Z,9.87
2017-10-13T05:38:52.761Z,9.90
2017-10-13T05:41:20.603Z,10.20
2017-10-13T05:43:48.458Z,11.67
2017-10-13T05:46:16.246Z,13.43
2017-10-13T05:48:44.027Z,22.13
2017-10-13T05:51:11.757Z,20.10
2017-10-13T05:53:39.626Z,13.03
2017-10-13T05:56:07.415Z,17.43
2017-10-13T05:58:35.279Z,14.60
2017-10-13T06:01:03.126Z,11.20
2017-10-13T06:03:30.930Z,12.67
2017-10-13T06:05:58.723Z,10.80
2017-10-13T06:08:26.520Z,11.63
2017-10-13T06:10:54.309Z,10.90
2017-10-13T06:13:22.047Z,11.20
2017-10-13T06:15:49.878Z,11.30
2017-10-13T06:18:17.669Z,11.27
2017-10-13T06:20:45.409Z,10.90
2017-10-13T06:23:13.215Z,11.37
2017-10-13T06:25:41.102Z,10.63
2017-10-13T06:28:08.876Z,11.17
2017-10-13T06:30:36.784Z,9.17
2017-10-13T06:33:04.649Z,10.80
2017-10-13T06:35:32.367Z,9.70
2017-10-13T06:38:00.143Z,9.33
2017-10-13T06:40:27.979Z,10.07
2017-10-13T06:42:56.491Z,10.30
2017-10-13T06:45:24.238Z,10.50
2017-10-13T06:47:51.984Z,9.80
2017-10-13T06:50:19.748Z,10.80
2017-10-13T06:52:47.536Z,10.53
2017-10-13T06:55:15.308Z,10.67
2017-10-13T06:57:43.049Z,10.60
2017-10-13T07:00:10.881Z,10.77
2017-10-13T07:02:39.418Z,10.20
2017-10-13T07:05:07.282Z,10.00
2017-10-13T07:07:35.043Z,10.40
2017-10-13T07:10:03.657Z,10.33
2017-10-13T07:12:31.562Z,11.37
2017-10-13T07:14:59.363Z,9.93
2017-10-13T07:17:27.160Z,9.90
2017-10-13T07:19:54.902Z,10.07
2017-10-13T07:22:22.695Z,10.40
2017-10-13T07:24:50.563Z,10.80
2017-10-13T07:27:18.360Z,10.43
2017-10-13T07:29:46.118Z,10.53
2017-10-13T07:32:13.911Z,9.83
2017-10-13T07:34:41.675Z,10.70
2017-10-13T07:37:09.455Z,11.00
2017-10-13T07:39:37.199Z,11.47
2017-10-13T07:42:04.943Z,11.07
2017-10-13T07:44:32.748Z,9.53
2017-10-13T07:47:00.544Z,10.17
2017-10-13T07:49:28.287Z,9.53
2017-10-13T07:51:56.035Z,10.80
2017-10-13T07:54:23.819Z,10.40
2017-10-13T07:56:51.563Z,10.17
2017-10-13T07:59:19.299Z,9.80
2017-10-13T08:01:47.112Z,10.50
2017-10-13T08:04:14.988Z,11.63
2017-10-13T08:06:42.776Z,13.00
2017-10-13T08:09:10.517Z,13.83
2017-10-13T08:11:39.129Z,13.30
2017-10-13T08:14:06.930Z,13.30
2017-10-13T08:16:34.718Z,12.90
2017-10-13T08:19:02.593Z,13.50
2017-10-13T08:21:30.367Z,13.13
2017-10-13T08:23:58.230Z,12.10
2017-10-13T08:26:26.222Z,14.37
2017-10-13T08:28:54.751Z,17.20
2017-10-13T08:31:22.516Z,17.77
2017-10-13T08:33:50.278Z,21.13
2017-10-13T08:36:18.067Z,21.53
2017-10-13T08:38:45.810Z,22.30
2017-10-13T08:41:13.591Z,23.57
2017-10-13T08:43:41.417Z,23.47
2017-10-13T08:46:09.165Z,22.07
2017-10-13T08:48:36.891Z,23.27
2017-10-13T08:51:04.688Z,24.20
2017-10-13T08:53:32.494Z,23.97
2017-10-13T08:56:00.280Z,23.77
2017-10-13T08:58:28.060Z,27.77
2017-10-13T09:00:55.841Z,27.87
2017-10-13T09:03:23.711Z,25.23
2017-10-13T09:05:51.495Z,28.80
2017-10-13T09:08:19.327Z,30.70
2017-10-13T09:10:47.068Z,28.17
2017-10-13T09:13:14.826Z,27.40
2017-10-13T09:15:42.583Z,35.10
2017-10-13T09:18:10.423Z,30.63
2017-10-13T09:20:38.215Z,30.27
2017-10-13T09:23:07.758Z,31.10
2017-10-13T09:25:35.558Z,29.60
2017-10-13T09:28:03.359Z,28.00
2017-10-13T09:30:31.196Z,26.57
2017-10-13T09:32:58.949Z,25.83
2017-10-13T09:35:26.729Z,24.80
2017-10-13T09:37:54.519Z,26.93
2017-10-13T09:40:22.333Z,25.90
2017-10-13T09:42:50.098Z,26.63
2017-10-13T09:45:18.026Z,27.37
2017-10-13T09:47:45.866Z,25.77
2017-10-13T09:50:13.673Z,26.27
2017-10-13T09:52:41.491Z,25.50
2017-10-13T09:55:09.264Z,28.20
2017-10-13T09:57:37.013Z,26.80
2017-10-13T10:00:04.802Z,26.13
2017-10-13T10:02:32.529Z,26.57
2017-10-13T10:05:01.101Z,27.30
2017-10-13T10:07:28.980Z,29.70
2017-10-13T10:09:57.596Z,30.23
2017-10-13T10:12:25.444Z,26.20
2017-10-13T10:14:53.191Z,28.33
2017-10-13T10:17:21.736Z,27.60
2017-10-13T10:19:49.551Z,28.63
2017-10-13T10:22:17.397Z,27.20
2017-10-13T10:24:45.123Z,27.63
2017-10-13T10:27:12.837Z,28.13
2017-10-13T10:29:40.612Z,29.67
2017-10-13T10:32:08.411Z,27.73
2017-10-13T10:34:36.281Z,28.37
2017-10-13T10:37:04.037Z,28.83
2017-10-13T10:39:31.812Z,26.73
2017-10-13T10:41:59.586Z,29.37
2017-10-13T10:44:27.360Z,29.90
2017-10-13T10:46:55.094Z,27.47
2017-10-13T10:49:23.759Z,28.63
2017-10-13T10:51:51.525Z,27.47
2017-10-13T10:54:19.300Z,26.10
2017-10-13T10:56:47.943Z,25.20
2017-10-13T10:59:15.691Z,23.63
2017-10-13T11:01:43.498Z,24.30
2017-10-13T11:04:11.284Z,23.00
2017-10-13T11:06:39.810Z,20.73
2017-10-13T11:09:07.611Z,23.33
2017-10-13T11:11:35.601Z,21.90
2017-10-13T11:14:03.356Z,23.70
2017-10-13T11:16:31.118Z,22.40
2017-10-13T11:18:58.908Z,23.93
2017-10-13T11:21:26.735Z,23.70
2017-10-13T11:23:54.536Z,25.20
2017-10-13T11:26:22.315Z,22.13
2017-10-13T11:28:50.040Z,22.13
2017-10-13T11:31:17.829Z,21.87
2017-10-13T11:33:45.704Z,24.93
2017-10-13T11:36:13.429Z,24.00
2017-10-13T11:38:41.217Z,24.17
2017-10-13T11:41:09.105Z,28.93
2017-10-13T11:43:36.835Z,28.90
2017-10-13T11:46:04.570Z,27.57
2017-10-13T11:48:32.456Z,31.93
2017-10-13T11:51:00.225Z,29.80
2017-10-13T11:53:27.964Z,32.13
2017-10-13T11:55:57.841Z,28.70
2017-10-13T11:58:25.732Z,32.47
2017-10-13T12:00:53.636Z,30.10
2017-10-13T12:03:21.453Z,27.07
2017-10-13T12:05:49.243Z,29.50
2017-10-13T12:10:57.328Z,26.43
2017-10-13T12:13:25.136Z,27.90
2017-10-13T12:15:52.961Z,24.43
2017-10-13T12:18:20.757Z,27.50
2017-10-13T12:20:48.518Z,26.17
2017-10-13T12:23:16.280Z,27.13
2017-10-13T12:25:44.054Z,21.63
2017-10-13T12:28:11.971Z,25.93
2017-10-13T12:30:39.708Z,26.70
2017-10-13T12:33:09.243Z,25.83
2017-10-13T12:35:39.291Z,20.13
2017-10-13T12:38:07.082Z,21.47
2017-10-13T12:40:34.816Z,23.27
2017-10-13T12:43:02.548Z,23.40
2017-10-13T12:45:31.098Z,21.30
2017-10-13T12:47:58.830Z,22.23
2017-10-13T12:50:26.633Z,25.67
2017-10-13T12:52:54.452Z,24.20
2017-10-13T12:55:22.435Z,23.23
2017-10-13T12:57:51.162Z,24.77
2017-10-13T13:00:19.064Z,23.03
2017-10-13T13:02:47.621Z,24.80
2017-10-13T13:05:15.954Z,23.30
2017-10-13T13:07:43.681Z,21.97
2017-10-13T13:10:12.236Z,22.63
2017-10-13T13:12:40.045Z,23.60
2017-10-13T13:15:08.602Z,19.83
2017-10-13T13:17:36.474Z,20.10
2017-10-13T13:20:04.228Z,21.17
2017-10-13T13:22:31.968Z,20.80
2017-10-13T13:24:59.706Z,22.83
2017-10-13T13:27:27.451Z,21.77
2017-10-13T13:29:55.240Z,24.00
2017-10-13T13:32:23.066Z,21.40
2017-10-13T13:34:50.807Z,23.00
2017-10-13T13:37:18.618Z,25.00
2017-10-13T13:39:46.433Z,24.60
2017-10-13T13:42:14.231Z,23.23
2017-10-13T13:44:42.020Z,23.47
2017-10-13T13:47:09.844Z,23.47
2017-10-13T13:49:37.652Z,22.60
2017-10-13T13:52:05.410Z,22.30
2017-10-13T13:54:33.283Z,24.03
2017-10-13T13:57:01.017Z,21.90
2017-10-13T13:59:28.757Z,24.20
2017-10-13T14:01:58.840Z,23.37
2017-10-13T14:04:29.263Z,22.20
2017-10-13T14:06:59.933Z,26.63
2017-10-13T14:09:29.793Z,23.73
2017-10-13T14:11:57.623Z,24.60
2017-10-13T14:14:25.452Z,24.30
2017-10-13T14:16:53.195Z,27.13
2017-10-13T14:19:20.945Z,24.73
2017-10-13T14:21:48.724Z,27.07
2017-10-13T14:24:16.513Z,26.20
2017-10-13T14:26:44.292Z,24.40
2017-10-13T14:29:12.082Z,27.80
2017-10-13T14:38:50.618Z,22.20
2017-10-13T14:41:18.404Z,23.90
2017-10-13T14:43:46.189Z,29.67
2017-10-13T14:46:14.103Z,30.90
2017-10-13T14:48:41.896Z,28.13
2017-10-13T14:51:09.831Z,31.37
2017-10-13T14:53:37.576Z,28.53
2017-10-13T14:56:05.443Z,28.30
2017-10-13T14:58:33.276Z,28.03
2017-10-13T15:01:01.862Z,29.27
2017-10-13T15:03:29.770Z,28.43
2017-10-13T15:05:57.591Z,28.17
2017-10-13T15:08:25.527Z,28.23
2017-10-13T15:10:53.313Z,30.40
2017-10-13T15:13:21.071Z,28.07
2017-10-13T15:15:49.733Z,25.10
2017-10-13T15:18:17.472Z,30.80
2017-10-13T15:20:45.226Z,29.07
2017-10-13T15:23:13.102Z,31.17
2017-10-13T15:25:46.665Z,31.17
2017-10-13T15:28:20.739Z,32.43
2017-10-13T15:30:53.983Z,31.30
2017-10-13T15:33:27.407Z,30.10
2017-10-13T15:49:27.619Z,30.80
2017-10-13T15:52:00.956Z,31.20
2017-10-13T15:54:28.807Z,29.10
2017-10-13T15:56:56.582Z,29.90
2017-10-13T15:59:24.305Z,31.43
2017-10-13T16:01:54.060Z,30.10
2017-10-13T16:04:21.914Z,26.40
2017-10-13T16:06:49.720Z,27.70
2017-10-13T16:09:17.453Z,32.50
2017-10-13T16:11:45.385Z,33.23
2017-10-13T16:14:13.255Z,28.90
2017-10-13T16:16:41.107Z,28.20
2017-10-13T16:19:08.935Z,30.97
2017-10-13T16:21:36.761Z,30.00
2017-10-13T16:26:39.351Z,32.07
2017-10-13T16:29:08.867Z,31.67
2017-10-13T16:31:36.804Z,26.57
2017-10-13T16:34:05.099Z,26.07
2017-10-13T16:36:33.861Z,29.03
2017-10-13T16:39:01.655Z,28.60
2017-10-13T16:41:29.442Z,28.00
2017-10-13T16:43:57.261Z,31.10
2017-10-13T16:46:25.056Z,28.17
2017-10-13T16:48:52.838Z,29.70
2017-10-13T16:51:21.531Z,30.90
2017-10-13T16:53:49.325Z,29.63
2017-10-13T16:56:17.090Z,28.90
2017-10-13T16:58:44.841Z,28.47
2017-10-13T17:01:13.404Z,28.83
2017-10-13T17:03:41.292Z,26.80
2017-10-13T17:06:09.794Z,28.47
2017-10-13T17:08:37.559Z,27.77
2017-10-13T17:11:05.438Z,26.73
2017-10-13T17:13:33.210Z,28.77
2017-10-13T17:16:01.095Z,27.97
2017-10-13T17:18:29.091Z,28.53
2017-10-13T17:20:56.869Z,30.10
2017-10-13T17:23:25.394Z,33.83
2017-10-13T17:25:53.156Z,30.60
2017-10-13T17:28:20.912Z,28.70
2017-10-13T17:30:48.815Z,29.40
2017-10-13T17:33:16.626Z,30.47
2017-10-13T17:35:45.270Z,31.57
2017-10-13T17:38:13.045Z,31.07
2017-10-13T17:40:40.796Z,32.30
2017-10-13T17:43:09.018Z,31.90
2017-10-13T17:45:37.305Z,34.27
2017-10-13T17:48:05.860Z,31.73
2017-10-13T17:50:34.326Z,32.60
2017-10-13T17:53:02.051Z,36.30
2017-10-13T17:55:29.863Z,35.77
2017-10-13T17:57:57.649Z,35.87
2017-10-13T18:00:25.532Z,38.53
2017-10-13T18:02:53.374Z,41.90
2017-10-13T18:05:21.168Z,38.47
2017-10-13T18:07:48.929Z,40.87
2017-10-13T18:10:16.845Z,39.37
2017-10-13T18:12:44.715Z,41.27
2017-10-13T18:15:13.564Z,45.87
2017-10-13T18:17:41.377Z,43.87
2017-10-13T18:20:09.180Z,59.60
2017-10-13T18:22:37.162Z,49.43
2017-10-13T18:25:04.954Z,50.07
2017-10-13T18:27:34.099Z,48.70
2017-10-13T18:30:01.839Z,47.40
2017-10-13T18:32:29.565Z,49.87
2017-10-13T18:34:57.306Z,46.60
2017-10-13T18:37:25.121Z,44.40
2017-10-13T18:39:52.916Z,44.70
2017-10-13T18:42:20.685Z,44.87
2017-10-13T18:44:48.425Z,46.60
2017-10-13T18:47:16.962Z,43.77
2017-10-13T18:49:44.752Z,43.23
2017-10-13T18:52:12.604Z,46.37
2017-10-13T18:54:40.808Z,45.53
2017-10-13T18:57:08.750Z,44.07
2017-10-13T18:59:36.550Z,46.70
2017-10-13T19:02:04.365Z,45.23
2017-10-13T19:04:32.141Z,43.77
2017-10-13T19:06:59.874Z,39.40
2017-10-13T19:09:27.673Z,37.37
2017-10-13T19:11:55.391Z,37.83
2017-10-13T19:14:23.235Z,35.67
2017-10-13T19:16:51.128Z,36.70
2017-10-13T19:19:19.628Z,33.60
2017-10-13T19:21:48.009Z,34.43
2017-10-13T19:24:17.477Z,33.43
2017-10-13T19:26:46.887Z,32.60
2017-10-13T19:29:16.682Z,33.33
2017-10-13T19:31:48.101Z,33.40
2017-10-13T19:34:17.089Z,33.70
2017-10-13T19:36:46.196Z,33.47
2017-10-13T19:39:17.374Z,33.47
2017-10-13T19:41:45.438Z,35.50
2017-10-13T19:44:14.160Z,33.90
2017-10-13T19:46:42.441Z,34.10
2017-10-13T19:49:10.358Z,32.50
2017-10-13T19:51:38.222Z,33.10
2017-10-13T19:54:05.966Z,32.60
2017-10-13T19:56:35.131Z,41.57
2017-10-13T19:59:03.526Z,34.53
2017-10-13T20:01:31.521Z,32.93
2017-10-13T20:03:59.275Z,31.90
2017-10-13T20:06:27.061Z,32.57
2017-10-13T20:08:54.775Z,30.50
2017-10-13T20:11:22.823Z,31.33
2017-10-13T20:13:50.783Z,29.90
2017-10-13T20:16:18.697Z,31.43
2017-10-13T20:18:46.511Z,32.03
2017-10-13T20:21:14.341Z,31.67
2017-10-13T20:23:42.164Z,30.70
2017-10-13T20:26:09.956Z,31.40
2017-10-13T20:28:37.736Z,31.30
2017-10-13T20:31:05.641Z,29.83
2017-10-13T20:33:33.425Z,29.20
2017-10-13T20:36:03.192Z,30.50
2017-10-13T20:38:31.032Z,28.60
2017-10-13T20:40:58.842Z,30.30
2017-10-13T20:43:26.670Z,30.77
2017-10-13T20:45:54.589Z,30.70
2017-10-13T20:48:23.297Z,28.80
2017-10-13T20:50:51.067Z,29.80
2017-10-13T20:53:18.820Z,31.10
2017-10-13T20:55:47.358Z,29.17
2017-10-13T20:58:15.210Z,30.30
2017-10-13T21:00:43.244Z,31.20
2017-10-13T21:03:10.964Z,32.00
2017-10-13T21:05:40.852Z,29.20
2017-10-13T21:08:08.599Z,28.77
2017-10-13T21:10:36.380Z,27.80
2017-10-13T21:13:04.324Z,28.60
2017-10-13T21:15:33.109Z,29.73
2017-10-13T21:18:00.933Z,30.77
2017-10-13T21:20:30.456Z,31.17
2017-10-13T21:22:58.350Z,30.50
2017-10-13T21:25:26.146Z,33.00
2017-10-13T21:27:53.982Z,31.90
2017-10-13T21:30:21.732Z,30.37
2017-10-13T21:32:49.531Z,29.70
2017-10-13T21:35:17.350Z,32.77
2017-10-13T21:37:45.102Z,29.67
2017-10-13T21:40:12.875Z,31.57
2017-10-13T21:42:40.723Z,31.20
2017-10-13T21:45:08.487Z,31.60
2017-10-13T21:47:36.314Z,32.00
2017-10-13T21:50:04.121Z,30.90
2017-10-13T21:52:31.963Z,29.47
2017-10-13T21:54:59.849Z,28.73
2017-10-13T21:57:27.627Z,28.47
2017-10-13T21:59:55.463Z,29.87
2017-10-13T22:02:23.267Z,28.93
2017-10-13T22:18:11.638Z,27.60
2017-10-13T22:20:39.360Z,29.50
2017-10-13T22:23:07.926Z,27.90
2017-10-13T22:25:35.676Z,29.77
2017-10-13T22:28:03.494Z,29.67
2017-10-13T22:30:31.244Z,29.17
2017-10-13T22:32:59.069Z,26.73
2017-10-13T22:35:26.866Z,27.90
2017-10-13T22:37:54.619Z,26.80
2017-10-13T22:40:22.455Z,27.67
2017-10-13T22:42:50.194Z,26.30
2017-10-13T22:45:17.945Z,27.60
2017-10-13T22:47:45.742Z,27.17
2017-10-13T22:50:13.489Z,26.60
2017-10-13T22:52:42.018Z,25.93
2017-10-13T22:55:09.919Z,26.70
2017-10-13T22:57:37.694Z,26.33
2017-10-13T23:00:06.236Z,25.67
2017-10-13T23:02:34.033Z,26.50
2017-10-13T23:05:01.786Z,25.70
2017-10-13T23:07:29.659Z,26.73
2017-10-13T23:09:57.453Z,27.10
2017-10-13T23:12:26.041Z,26.03
2017-10-13T23:14:53.893Z,26.60
2017-10-13T23:17:21.713Z,26.53
2017-10-13T23:19:49.504Z,24.80
2017-10-13T23:22:17.293Z,24.80
2017-10-13T23:24:45.089Z,25.43
2017-10-13T23:27:12.889Z,26.37
2017-10-13T23:29:40.713Z,27.87
2017-10-13T23:32:08.537Z,28.07
2017-10-13T23:34:36.346Z,27.10
2017-10-13T23:37:05.000Z,26.27
2017-10-13T23:39:32.787Z,27.10
2017-10-13T23:42:00.609Z,28.30
2017-10-13T23:44:28.418Z,27.63
2017-10-13T23:46:56.203Z,27.73
2017-10-13T23:49:23.996Z,27.60
2017-10-13T23:51:51.779Z,28.20
2017-10-13T23:54:19.575Z,30.33
2017-10-13T23:56:47.364Z,30.00
2017-10-13T23:59:15.143Z,29.33
